createdAt,value
2016-12-16T00:00:14.180Z,81.75
2016-12-16T00:00:42.028Z,80.99
2016-12-16T00:01:09.954Z,81.95
2016-12-16T00:01:37.943Z,81.46
2016-12-16T00:02:05.770Z,81.46
2016-12-16T00:02:33.625Z,82.14
2016-12-16T00:03:01.461Z,81.95
2016-12-16T00:03:29.310Z,82.14
2016-12-16T00:03:57.131Z,81.37
2016-12-16T00:04:25.028Z,81.46
2016-12-16T00:04:52.853Z,81.27
2016-12-16T00:05:20.656Z,81.95
2016-12-16T00:05:48.487Z,81.9
2016-12-16T00:06:16.414Z,82.32
2016-12-16T00:06:44.497Z,82.14
2016-12-16T00:07:12.345Z,82.32
2016-12-16T00:07:40.164Z,82.23
2016-12-16T00:08:07.995Z,82.29
2016-12-16T00:08:35.835Z,82.04
2016-12-16T00:09:03.620Z,82.62
2016-12-16T00:09:31.444Z,82.23
2016-12-16T00:09:59.324Z,82.32
2016-12-16T00:10:27.172Z,82.42
2016-12-16T00:10:55.071Z,82.57
2016-12-16T00:11:22.952Z,82.48
2016-12-16T00:11:51.128Z,82.23
2016-12-16T00:12:19.018Z,82.52
2016-12-16T00:12:46.789Z,82.32
2016-12-16T00:13:14.656Z,82.52
2016-12-16T00:13:42.577Z,82.14
2016-12-16T00:14:10.398Z,82.42
2016-12-16T00:14:38.199Z,82.14
2016-12-16T00:15:05.986Z,82.09
2016-12-16T00:15:33.786Z,82.23
2016-12-16T00:16:01.616Z,82.23
2016-12-16T00:16:29.419Z,82.57
2016-12-16T00:16:57.556Z,82.71
2016-12-16T00:17:25.349Z,83.05
2016-12-16T00:17:53.213Z,83.05
2016-12-16T00:18:21.029Z,83.25
2016-12-16T00:18:48.866Z,83.15
2016-12-16T00:19:16.785Z,82.57
2016-12-16T00:19:44.551Z,83.29
2016-12-16T00:20:12.340Z,82.48
2016-12-16T00:20:40.210Z,83.34
2016-12-16T00:21:08.055Z,82.67
2016-12-16T00:21:35.863Z,82.42
2016-12-16T00:22:03.904Z,83.15
2016-12-16T00:22:31.700Z,82.67
2016-12-16T00:22:59.505Z,82.86
2016-12-16T00:23:27.341Z,83.05
2016-12-16T00:23:55.173Z,82.67
2016-12-16T00:24:22.964Z,82.67
2016-12-16T00:24:50.844Z,83.15
2016-12-16T00:25:18.643Z,83.15
2016-12-16T00:25:46.464Z,83
2016-12-16T00:26:14.491Z,83.05
2016-12-16T00:26:42.521Z,83.05
2016-12-16T00:27:10.352Z,83.34
2016-12-16T00:27:38.185Z,83.05
2016-12-16T00:28:06.024Z,83.29
2016-12-16T00:28:33.880Z,83.34
2016-12-16T00:29:01.849Z,82.96
2016-12-16T00:29:29.635Z,83.15
2016-12-16T00:29:57.495Z,83.53
2016-12-16T00:30:25.412Z,83.72
2016-12-16T00:30:53.266Z,82.96
2016-12-16T00:31:21.044Z,82.48
2016-12-16T00:31:49.074Z,83.38
2016-12-16T00:32:16.887Z,82.9
2016-12-16T00:32:44.760Z,82.57
2016-12-16T00:33:12.533Z,82.71
2016-12-16T00:33:40.413Z,83.25
2016-12-16T00:34:08.238Z,83.29
2016-12-16T00:34:36.113Z,83.29
2016-12-16T00:35:04.047Z,82.9
2016-12-16T00:35:31.970Z,83.53
2016-12-16T00:35:59.773Z,83.09
2016-12-16T00:36:27.718Z,82.52
2016-12-16T00:36:55.776Z,83
2016-12-16T00:37:23.778Z,83.38
2016-12-16T00:37:51.605Z,83.19
2016-12-16T00:38:19.448Z,83
2016-12-16T00:38:47.380Z,82.23
2016-12-16T00:39:15.182Z,82.42
2016-12-16T00:39:43.051Z,82.71
2016-12-16T00:40:10.934Z,82.32
2016-12-16T00:40:38.726Z,82.23
2016-12-16T00:41:06.657Z,82.32
2016-12-16T00:41:34.521Z,82.23
2016-12-16T00:42:02.535Z,82.32
2016-12-16T00:42:30.379Z,82.14
2016-12-16T00:42:58.192Z,82.32
2016-12-16T00:43:26.040Z,82.52
2016-12-16T00:43:53.878Z,82.23
2016-12-16T00:44:21.782Z,82.42
2016-12-16T00:44:49.739Z,82.62
2016-12-16T00:45:17.561Z,82.23
2016-12-16T00:45:45.399Z,82.32
2016-12-16T00:46:13.326Z,82.62
2016-12-16T00:46:41.255Z,82.71
2016-12-16T00:47:09.361Z,82.32
2016-12-16T00:47:37.168Z,82.32
2016-12-16T00:48:04.987Z,82.52
2016-12-16T00:48:32.802Z,82.71
2016-12-16T00:49:00.676Z,82.48
2016-12-16T00:49:28.566Z,83
2016-12-16T00:49:56.417Z,83.19
2016-12-16T00:50:24.234Z,83.29
2016-12-16T00:50:52.065Z,82.9
2016-12-16T00:51:19.861Z,82.62
2016-12-16T00:51:47.930Z,82.71
2016-12-16T00:52:15.800Z,82.9
2016-12-16T00:52:43.695Z,82.9
2016-12-16T00:53:11.560Z,82.32
2016-12-16T00:53:39.386Z,82.42
2016-12-16T00:54:07.183Z,82.32
2016-12-16T00:54:35.000Z,82.23
2016-12-16T00:55:02.900Z,82.32
2016-12-16T00:55:30.878Z,82.62
2016-12-16T00:55:58.694Z,82.42
2016-12-16T00:56:26.592Z,82.14
2016-12-16T00:56:54.694Z,82.23
2016-12-16T00:57:22.436Z,82.42
2016-12-16T00:57:50.357Z,82.14
2016-12-16T00:58:18.153Z,82.62
2016-12-16T00:58:45.998Z,83.19
2016-12-16T00:59:13.884Z,82.14
2016-12-16T00:59:41.738Z,82.14
2016-12-16T01:00:09.587Z,83.09
2016-12-16T01:00:37.459Z,82.42
2016-12-16T01:01:05.297Z,82.52
2016-12-16T01:01:33.120Z,82.71
2016-12-16T01:02:01.226Z,82.9
2016-12-16T01:02:29.052Z,82.71
2016-12-16T01:02:56.895Z,82.52
2016-12-16T01:03:24.710Z,83.19
2016-12-16T01:03:52.614Z,82.9
2016-12-16T01:04:20.453Z,82.9
2016-12-16T01:04:48.396Z,82.76
2016-12-16T01:05:16.237Z,83
2016-12-16T01:05:44.044Z,83.19
2016-12-16T01:06:11.883Z,83.09
2016-12-16T01:06:39.719Z,83.09
2016-12-16T01:07:07.817Z,82.81
2016-12-16T01:07:35.646Z,82.62
2016-12-16T01:08:03.464Z,82.48
2016-12-16T01:08:31.304Z,83.29
2016-12-16T01:08:59.231Z,83.29
2016-12-16T01:09:27.051Z,82.86
2016-12-16T01:09:54.884Z,83.09
2016-12-16T01:10:22.709Z,82.71
2016-12-16T01:10:50.511Z,82.9
2016-12-16T01:11:18.298Z,83
2016-12-16T01:11:46.129Z,82.48
2016-12-16T01:12:14.187Z,82.38
2016-12-16T01:12:42.119Z,82.76
2016-12-16T01:13:09.938Z,83.19
2016-12-16T01:13:37.796Z,83.05
2016-12-16T01:14:05.756Z,83.29
2016-12-16T01:14:33.701Z,83.72
2016-12-16T01:15:01.593Z,83.34
2016-12-16T01:15:29.456Z,83.05
2016-12-16T01:15:57.299Z,83
2016-12-16T01:16:25.242Z,83.09
2016-12-16T01:16:53.048Z,82.14
2016-12-16T01:17:21.139Z,82.48
2016-12-16T01:17:48.940Z,82.52
2016-12-16T01:18:16.788Z,82.96
2016-12-16T01:18:44.576Z,82.57
2016-12-16T01:19:12.418Z,82.62
2016-12-16T01:19:40.217Z,83.09
2016-12-16T01:20:08.100Z,82.52
2016-12-16T01:20:35.913Z,83.29
2016-12-16T01:21:03.712Z,82.62
2016-12-16T01:21:31.557Z,83.38
2016-12-16T01:21:59.434Z,82.23
2016-12-16T01:22:27.517Z,82.42
2016-12-16T01:22:55.341Z,82.32
2016-12-16T01:23:23.464Z,82.23
2016-12-16T01:23:51.424Z,82.52
2016-12-16T01:24:19.354Z,82.32
2016-12-16T01:24:47.424Z,82.19
2016-12-16T01:25:15.338Z,82.38
2016-12-16T01:25:43.107Z,82.96
2016-12-16T01:26:10.925Z,82.48
2016-12-16T01:26:38.863Z,82.42
2016-12-16T01:27:07.037Z,82.52
2016-12-16T01:27:34.893Z,83
2016-12-16T01:28:02.744Z,83
2016-12-16T01:28:30.622Z,82.71
2016-12-16T01:28:58.505Z,82.71
2016-12-16T01:29:26.316Z,82.32
2016-12-16T01:29:54.204Z,82.32
2016-12-16T01:30:22.036Z,82.23
2016-12-16T01:30:56.162Z,81.75
2016-12-16T01:31:24.045Z,81.85
2016-12-16T01:31:51.956Z,81.46
2016-12-16T01:32:20.046Z,81.95
2016-12-16T01:32:47.867Z,81.46
2016-12-16T01:33:15.731Z,81.66
2016-12-16T01:33:43.533Z,81.46
2016-12-16T01:34:11.345Z,81.56
2016-12-16T01:34:39.314Z,81.46
2016-12-16T01:35:07.156Z,81.75
2016-12-16T01:35:34.988Z,81.56
2016-12-16T01:36:02.895Z,81.56
2016-12-16T01:36:30.760Z,81.75
2016-12-16T01:36:58.657Z,81.27
2016-12-16T01:37:26.702Z,81.56
2016-12-16T01:37:54.556Z,81.46
2016-12-16T01:38:22.393Z,81.46
2016-12-16T01:38:50.353Z,81.27
2016-12-16T01:39:18.201Z,81.18
2016-12-16T01:39:46.181Z,81.18
2016-12-16T01:40:14.000Z,81.66
2016-12-16T01:40:41.818Z,81.27
2016-12-16T01:41:09.672Z,81.27
2016-12-16T01:41:37.534Z,81.56
2016-12-16T01:42:05.329Z,81.27
2016-12-16T01:42:33.355Z,81.75
2016-12-16T01:43:01.175Z,81.46
2016-12-16T01:43:28.993Z,81.66
2016-12-16T01:43:56.851Z,81.27
2016-12-16T01:44:24.707Z,81.37
2016-12-16T01:44:52.504Z,80.79
2016-12-16T01:45:20.412Z,81.46
2016-12-16T01:45:48.245Z,81.37
2016-12-16T01:46:16.068Z,81.56
2016-12-16T01:46:43.911Z,81.37
2016-12-16T01:47:11.938Z,81.27
2016-12-16T01:47:39.788Z,81.66
2016-12-16T01:48:07.631Z,81.08
2016-12-16T01:48:35.506Z,81.85
2016-12-16T01:49:03.325Z,80.89
2016-12-16T01:49:31.200Z,80.99
2016-12-16T01:49:59.024Z,80.99
2016-12-16T01:50:26.840Z,80.99
2016-12-16T01:50:54.659Z,80.89
2016-12-16T01:51:22.460Z,80.51
2016-12-16T01:51:50.344Z,81.27
2016-12-16T01:52:18.549Z,81.46
2016-12-16T01:52:46.389Z,81.08
2016-12-16T01:53:14.212Z,80.89
2016-12-16T01:53:42.053Z,80.99
2016-12-16T01:54:09.865Z,81.56
2016-12-16T01:54:37.709Z,81.27
2016-12-16T01:55:05.650Z,81.27
2016-12-16T01:55:33.475Z,81.27
2016-12-16T01:56:01.357Z,81.46
2016-12-16T01:56:29.166Z,81.95
2016-12-16T01:56:57.014Z,81.56
2016-12-16T01:57:25.245Z,82
2016-12-16T01:57:53.117Z,81.66
2016-12-16T01:58:21.035Z,81.66
2016-12-16T01:58:48.832Z,81.37
2016-12-16T01:59:16.711Z,81.46
2016-12-16T01:59:44.543Z,81.66
2016-12-16T02:00:12.366Z,81.43
2016-12-16T02:00:40.204Z,81.37
2016-12-16T02:01:08.047Z,81.56
2016-12-16T02:01:35.875Z,81.9
2016-12-16T02:02:03.898Z,81.95
2016-12-16T02:02:31.952Z,81.85
2016-12-16T02:03:00.034Z,81.85
2016-12-16T02:03:27.861Z,81.37
2016-12-16T02:03:55.801Z,81.85
2016-12-16T02:04:23.649Z,82.14
2016-12-16T02:04:51.596Z,81.75
2016-12-16T02:05:19.425Z,82.23
2016-12-16T02:05:47.305Z,82.32
2016-12-16T02:06:15.104Z,82.04
2016-12-16T02:06:42.907Z,82.04
2016-12-16T02:07:10.711Z,81.56
2016-12-16T02:07:38.771Z,81.46
2016-12-16T02:08:06.586Z,81.85
2016-12-16T02:08:34.420Z,81.46
2016-12-16T02:09:02.254Z,81.95
2016-12-16T02:09:30.153Z,81.75
2016-12-16T02:09:57.984Z,81.85
2016-12-16T02:10:25.825Z,81.18
2016-12-16T02:10:53.636Z,81.62
2016-12-16T02:11:21.699Z,82.09
2016-12-16T02:11:49.535Z,82.32
2016-12-16T02:12:17.355Z,82.48
2016-12-16T02:12:45.378Z,82.32
2016-12-16T02:13:13.235Z,82.29
2016-12-16T02:13:41.110Z,82.29
2016-12-16T02:14:08.946Z,81.9
2016-12-16T02:14:36.824Z,81.95
2016-12-16T02:15:04.659Z,82.29
2016-12-16T02:15:32.460Z,82.19
2016-12-16T02:16:00.269Z,82.23
2016-12-16T02:16:28.105Z,82.38
2016-12-16T02:16:55.933Z,82.29
2016-12-16T02:17:24.014Z,82.32
2016-12-16T02:17:51.959Z,82.38
2016-12-16T02:18:19.811Z,82.04
2016-12-16T02:18:47.651Z,82.14
2016-12-16T02:19:15.505Z,82.14
2016-12-16T02:19:43.318Z,81.56
2016-12-16T02:20:11.325Z,81.56
2016-12-16T02:20:39.202Z,81.95
2016-12-16T02:21:07.032Z,81.85
2016-12-16T02:21:34.891Z,82.19
2016-12-16T02:22:02.739Z,82.38
2016-12-16T02:22:30.760Z,82.38
2016-12-16T02:22:58.635Z,82.76
2016-12-16T02:23:26.464Z,82.86
2016-12-16T02:23:54.314Z,82.96
2016-12-16T02:24:22.270Z,83.15
2016-12-16T02:24:50.113Z,83.34
2016-12-16T02:25:17.942Z,83.44
2016-12-16T02:25:45.756Z,83.15
2016-12-16T02:26:13.618Z,83.15
2016-12-16T02:26:41.453Z,82.48
2016-12-16T02:27:09.281Z,82.86
2016-12-16T02:27:37.292Z,83.34
2016-12-16T02:28:05.143Z,83.44
2016-12-16T02:28:32.981Z,83.34
2016-12-16T02:29:00.774Z,83.25
2016-12-16T02:29:28.691Z,83.25
2016-12-16T02:29:56.524Z,83.25
2016-12-16T02:30:24.338Z,83.63
2016-12-16T02:30:52.176Z,83.34
2016-12-16T02:31:20.057Z,83.63
2016-12-16T02:31:47.869Z,83.25
2016-12-16T02:32:15.652Z,83.34
2016-12-16T02:32:43.751Z,83.34
2016-12-16T02:33:11.589Z,83.34
2016-12-16T02:33:39.420Z,83.34
2016-12-16T02:34:07.311Z,83.34
2016-12-16T02:34:35.151Z,83.53
2016-12-16T02:35:03.056Z,83.34
2016-12-16T02:35:30.916Z,83.05
2016-12-16T02:35:58.749Z,83.34
2016-12-16T02:36:26.565Z,83.34
2016-12-16T02:36:54.362Z,83.63
2016-12-16T02:37:22.247Z,83.15
2016-12-16T02:37:50.314Z,83.15
2016-12-16T02:38:18.179Z,83.15
2016-12-16T02:38:46.052Z,83.25
2016-12-16T02:39:13.891Z,83.25
2016-12-16T02:39:41.722Z,82.86
2016-12-16T02:40:09.584Z,82.81
2016-12-16T02:40:37.349Z,83.25
2016-12-16T02:41:05.192Z,83.44
2016-12-16T02:41:33.058Z,82.86
2016-12-16T02:42:00.902Z,82.57
2016-12-16T02:42:28.959Z,82.9
2016-12-16T02:42:56.783Z,82.81
2016-12-16T02:43:24.646Z,82.57
2016-12-16T02:43:52.496Z,83
2016-12-16T02:44:20.340Z,82.81
2016-12-16T02:44:48.232Z,83.19
2016-12-16T02:45:16.073Z,82.52
2016-12-16T02:45:43.969Z,82.52
2016-12-16T02:46:11.769Z,82.81
2016-12-16T02:46:39.626Z,83.29
2016-12-16T02:47:07.517Z,83.15
2016-12-16T02:47:35.601Z,83.34
2016-12-16T02:48:03.432Z,83.05
2016-12-16T02:48:31.354Z,83.25
2016-12-16T02:48:59.171Z,83.25
2016-12-16T02:49:27.013Z,83.34
2016-12-16T02:49:54.854Z,83.63
2016-12-16T02:50:22.729Z,83.63
2016-12-16T02:50:50.569Z,83.25
2016-12-16T02:51:18.463Z,83.05
2016-12-16T02:51:46.283Z,83.53
2016-12-16T02:52:14.150Z,83.34
2016-12-16T02:52:42.193Z,83.34
2016-12-16T02:53:10.041Z,83.44
2016-12-16T02:53:37.832Z,83.44
2016-12-16T02:54:05.655Z,83.15
2016-12-16T02:54:33.531Z,83.05
2016-12-16T02:55:01.330Z,83.29
2016-12-16T02:55:29.151Z,83.38
2016-12-16T02:55:56.988Z,82.62
2016-12-16T02:56:24.808Z,82.32
2016-12-16T02:56:52.632Z,82.62
2016-12-16T02:57:20.483Z,82.52
2016-12-16T02:57:48.577Z,82.76
2016-12-16T02:58:16.357Z,82.19
2016-12-16T02:58:44.201Z,82.67
2016-12-16T02:59:11.980Z,82.38
2016-12-16T02:59:39.838Z,82.52
2016-12-16T03:00:07.807Z,82.29
2016-12-16T03:00:35.819Z,82.67
2016-12-16T03:01:03.693Z,83.05
2016-12-16T03:01:31.536Z,82.76
2016-12-16T03:01:59.387Z,82.57
2016-12-16T03:02:27.180Z,82.76
2016-12-16T03:02:55.137Z,83.09
2016-12-16T03:03:22.937Z,82.32
2016-12-16T03:03:50.777Z,82.29
2016-12-16T03:04:18.709Z,82.14
2016-12-16T03:04:46.559Z,82.23
2016-12-16T03:05:14.339Z,82.71
2016-12-16T03:05:42.192Z,82.14
2016-12-16T03:06:10.164Z,82.32
2016-12-16T03:06:37.990Z,82.32
2016-12-16T03:07:05.815Z,82.32
2016-12-16T03:07:33.637Z,82.23
2016-12-16T03:08:01.675Z,82.52
2016-12-16T03:08:29.522Z,82.42
2016-12-16T03:08:57.350Z,82.29
2016-12-16T03:09:25.175Z,82.48
2016-12-16T03:09:53.053Z,82.52
2016-12-16T03:10:20.889Z,82.76
2016-12-16T03:10:48.712Z,82.62
2016-12-16T03:11:16.603Z,82.96
2016-12-16T03:11:44.455Z,82.76
2016-12-16T03:12:12.262Z,83.15
2016-12-16T03:12:40.299Z,83.15
2016-12-16T03:13:08.115Z,82.96
2016-12-16T03:13:35.954Z,83.44
2016-12-16T03:14:03.847Z,83.63
2016-12-16T03:14:31.684Z,83.25
2016-12-16T03:14:59.544Z,83.25
2016-12-16T03:15:27.360Z,83.25
2016-12-16T03:15:55.183Z,83.44
2016-12-16T03:16:23.004Z,83.05
2016-12-16T03:16:50.834Z,83.25
2016-12-16T03:17:18.773Z,82.67
2016-12-16T03:17:46.848Z,83.15
2016-12-16T03:18:14.693Z,83.25
2016-12-16T03:18:42.572Z,83
2016-12-16T03:19:10.393Z,83
2016-12-16T03:19:38.288Z,83.19
2016-12-16T03:20:06.121Z,83.15
2016-12-16T03:20:34.000Z,83
2016-12-16T03:21:01.807Z,83
2016-12-16T03:21:29.641Z,82.62
2016-12-16T03:21:57.491Z,82.62
2016-12-16T03:22:25.357Z,83
2016-12-16T03:22:53.434Z,83.19
2016-12-16T03:23:21.271Z,83
2016-12-16T03:23:49.099Z,82.52
2016-12-16T03:24:16.890Z,82.42
2016-12-16T03:24:44.747Z,82.42
2016-12-16T03:25:12.576Z,82.62
2016-12-16T03:25:40.416Z,82.23
2016-12-16T03:26:08.279Z,82.52
2016-12-16T03:26:36.248Z,82.71
2016-12-16T03:27:04.054Z,82.14
2016-12-16T03:27:31.891Z,82.14
2016-12-16T03:27:59.932Z,82.42
2016-12-16T03:28:27.804Z,83
2016-12-16T03:28:55.619Z,83
2016-12-16T03:29:23.464Z,82.62
2016-12-16T03:29:51.351Z,82.62
2016-12-16T03:30:19.128Z,83.19
2016-12-16T03:30:46.941Z,82.52
2016-12-16T03:31:14.769Z,82.62
2016-12-16T03:31:42.618Z,82.71
2016-12-16T03:32:10.572Z,83.09
2016-12-16T03:32:38.393Z,82.14
2016-12-16T03:33:06.595Z,82.32
2016-12-16T03:33:34.408Z,82.32
2016-12-16T03:34:02.235Z,82.42
2016-12-16T03:34:30.139Z,82.52
2016-12-16T03:34:57.976Z,82.62
2016-12-16T03:35:25.818Z,82.71
2016-12-16T03:35:53.750Z,83.09
2016-12-16T03:36:21.538Z,82.52
2016-12-16T03:36:49.457Z,82.14
2016-12-16T03:37:17.266Z,82.23
2016-12-16T03:37:45.323Z,82.23
2016-12-16T03:38:13.140Z,82.32
2016-12-16T03:38:40.953Z,82.62
2016-12-16T03:39:08.879Z,82.62
2016-12-16T03:39:36.744Z,82.62
2016-12-16T03:40:04.636Z,82.71
2016-12-16T03:40:32.500Z,82.32
2016-12-16T03:41:00.354Z,82.52
2016-12-16T03:41:28.178Z,82.23
2016-12-16T03:41:56.027Z,82.81
2016-12-16T03:42:23.891Z,82.32
2016-12-16T03:42:51.953Z,82.14
2016-12-16T03:43:19.806Z,82.32
2016-12-16T03:43:47.684Z,82.32
2016-12-16T03:44:15.513Z,82.52
2016-12-16T03:44:43.341Z,82.32
2016-12-16T03:45:11.171Z,82.42
2016-12-16T03:45:39.119Z,82.23
2016-12-16T03:46:06.971Z,82.42
2016-12-16T03:46:34.812Z,82.42
2016-12-16T03:47:02.659Z,82.42
2016-12-16T03:47:30.511Z,82.62
2016-12-16T03:47:58.619Z,82.14
2016-12-16T03:48:26.483Z,82.42
2016-12-16T03:48:54.323Z,82.42
2016-12-16T03:49:22.129Z,82.42
2016-12-16T03:49:49.993Z,82.42
2016-12-16T03:50:17.891Z,82.23
2016-12-16T03:50:45.764Z,82.62
2016-12-16T03:51:13.582Z,82.71
2016-12-16T03:51:41.403Z,82.14
2016-12-16T03:52:09.241Z,82.14
2016-12-16T03:52:37.083Z,81.95
2016-12-16T03:53:05.106Z,81.75
2016-12-16T03:53:32.970Z,81.46
2016-12-16T03:54:00.941Z,81.95
2016-12-16T03:54:28.825Z,81.85
2016-12-16T03:54:56.732Z,81.75
2016-12-16T03:55:24.572Z,81.85
2016-12-16T03:55:52.380Z,81.85
2016-12-16T03:56:20.243Z,81.46
2016-12-16T03:56:48.077Z,81.46
2016-12-16T03:57:15.944Z,81.85
2016-12-16T03:57:43.753Z,81.85
2016-12-16T03:58:11.842Z,81.95
2016-12-16T03:58:39.710Z,81.85
2016-12-16T03:59:07.553Z,81.66
2016-12-16T03:59:35.421Z,81.56
2016-12-16T04:00:03.223Z,81.75
2016-12-16T04:00:31.067Z,81.46
2016-12-16T04:00:58.876Z,81.46
2016-12-16T04:01:26.760Z,81.66
2016-12-16T04:01:54.605Z,81.27
2016-12-16T04:02:22.417Z,81.66
2016-12-16T04:02:50.495Z,82.04
2016-12-16T04:03:18.347Z,81.95
2016-12-16T04:03:46.157Z,81.56
2016-12-16T04:04:14.005Z,81.66
2016-12-16T04:04:41.899Z,81.56
2016-12-16T04:05:09.764Z,81.46
2016-12-16T04:05:37.565Z,81.51
2016-12-16T04:06:05.394Z,81.46
2016-12-16T04:06:33.258Z,81.56
2016-12-16T04:07:01.204Z,81.7
2016-12-16T04:07:29.041Z,81.18
2016-12-16T04:07:57.075Z,81.27
2016-12-16T04:08:24.916Z,81.37
2016-12-16T04:08:52.756Z,81.37
2016-12-16T04:09:20.585Z,81.66
2016-12-16T04:09:48.436Z,81.41
2016-12-16T04:10:16.331Z,81.18
2016-12-16T04:10:44.194Z,81.6
2016-12-16T04:11:12.049Z,81.6
2016-12-16T04:11:39.879Z,81.08
2016-12-16T04:12:07.721Z,80.89
2016-12-16T04:12:35.605Z,80.89
2016-12-16T04:13:03.626Z,81.56
2016-12-16T04:13:31.539Z,81.46
2016-12-16T04:13:59.473Z,81.37
2016-12-16T04:14:27.430Z,81.27
2016-12-16T04:14:55.288Z,81.27
2016-12-16T04:15:23.121Z,81.85
2016-12-16T04:15:50.939Z,81.66
2016-12-16T04:16:18.777Z,81.85
2016-12-16T04:16:46.597Z,81.75
2016-12-16T04:17:14.427Z,81.95
2016-12-16T04:17:42.303Z,81.85
2016-12-16T04:18:10.394Z,82.14
2016-12-16T04:18:38.184Z,82.32
2016-12-16T04:19:06.057Z,82.04
2016-12-16T04:19:33.907Z,82.42
2016-12-16T04:20:01.791Z,81.85
2016-12-16T04:20:29.745Z,81.95
2016-12-16T04:20:57.593Z,81.95
2016-12-16T04:21:25.439Z,81.95
2016-12-16T04:21:53.242Z,81.75
2016-12-16T04:22:21.102Z,82.14
2016-12-16T04:22:49.010Z,82.14
2016-12-16T04:23:17.134Z,82.04
2016-12-16T04:23:44.972Z,81.37
2016-12-16T04:24:12.884Z,81.27
2016-12-16T04:24:40.705Z,81.27
2016-12-16T04:25:08.590Z,81.66
2016-12-16T04:25:36.422Z,81.46
2016-12-16T04:26:04.268Z,81.66
2016-12-16T04:26:32.071Z,81.56
2016-12-16T04:26:59.896Z,81.66
2016-12-16T04:27:27.718Z,81.56
2016-12-16T04:27:55.786Z,81.85
2016-12-16T04:28:23.634Z,81.37
2016-12-16T04:28:51.565Z,81.37
2016-12-16T04:29:19.386Z,81.18
2016-12-16T04:29:47.223Z,81.56
2016-12-16T04:30:15.115Z,81.75
2016-12-16T04:30:42.991Z,81.56
2016-12-16T04:31:10.820Z,82.14
2016-12-16T04:31:38.608Z,81.46
2016-12-16T04:32:06.452Z,81.27
2016-12-16T04:32:34.286Z,81.85
2016-12-16T04:33:02.350Z,81.75
2016-12-16T04:33:30.177Z,81.75
2016-12-16T04:33:57.959Z,81.46
2016-12-16T04:34:25.758Z,81.66
2016-12-16T04:34:53.589Z,81.66
2016-12-16T04:35:21.415Z,81.56
2016-12-16T04:35:49.235Z,81.37
2016-12-16T04:36:17.083Z,81.56
2016-12-16T04:36:44.923Z,81.27
2016-12-16T04:37:12.740Z,81.27
2016-12-16T04:37:40.556Z,81.56
2016-12-16T04:38:08.620Z,81.66
2016-12-16T04:38:36.487Z,81.56
2016-12-16T04:39:04.323Z,81.46
2016-12-16T04:39:32.178Z,81.66
2016-12-16T04:39:59.994Z,81.27
2016-12-16T04:40:27.855Z,81.46
2016-12-16T04:40:55.670Z,81.56
2016-12-16T04:41:23.447Z,81.66
2016-12-16T04:41:51.299Z,81.95
2016-12-16T04:42:19.211Z,81.75
2016-12-16T04:42:47.016Z,82.04
2016-12-16T04:43:15.038Z,81.66
2016-12-16T04:43:42.887Z,81.75
2016-12-16T04:44:10.719Z,81.08
2016-12-16T04:44:38.547Z,81.95
2016-12-16T04:45:06.331Z,81.75
2016-12-16T04:45:34.105Z,81.46
2016-12-16T04:46:02.000Z,81.46
2016-12-16T04:46:29.872Z,81.85
2016-12-16T04:46:57.700Z,81.75
2016-12-16T04:47:25.504Z,81.66
2016-12-16T04:47:53.328Z,81.66
2016-12-16T04:48:21.414Z,81.85
2016-12-16T04:48:49.219Z,81.75
2016-12-16T04:49:17.049Z,81.56
2016-12-16T04:49:44.875Z,81.66
2016-12-16T04:50:12.688Z,82.14
2016-12-16T04:50:40.597Z,81.9
2016-12-16T04:51:08.447Z,81.75
2016-12-16T04:51:36.397Z,81.62
2016-12-16T04:52:04.216Z,81.62
2016-12-16T04:52:32.098Z,81.43
2016-12-16T04:53:00.091Z,81.9
2016-12-16T04:53:27.955Z,81.9
2016-12-16T04:53:55.748Z,82.19
2016-12-16T04:54:23.631Z,82.14
2016-12-16T04:54:51.482Z,81.52
2016-12-16T04:55:19.330Z,81.52
2016-12-16T04:55:47.195Z,81.23
2016-12-16T04:56:14.987Z,81.81
2016-12-16T04:56:42.855Z,81.9
2016-12-16T04:57:10.671Z,81.66
2016-12-16T04:57:38.525Z,81.43
2016-12-16T04:58:06.603Z,81.56
2016-12-16T04:58:34.467Z,81.81
2016-12-16T04:59:02.386Z,81.75
2016-12-16T04:59:30.187Z,81.75
2016-12-16T04:59:57.976Z,81.62
2016-12-16T05:00:25.813Z,81.71
2016-12-16T05:00:53.670Z,81.46
2016-12-16T05:01:21.506Z,81.56
2016-12-16T05:01:49.295Z,81.27
2016-12-16T05:02:17.142Z,81.43
2016-12-16T05:02:45.084Z,81.43
2016-12-16T05:03:13.082Z,81.56
2016-12-16T05:03:40.925Z,81.46
2016-12-16T05:04:08.766Z,81.46
2016-12-16T05:04:36.618Z,81.95
2016-12-16T05:05:04.428Z,81.27
2016-12-16T05:05:32.270Z,81.85
2016-12-16T05:06:00.086Z,81.46
2016-12-16T05:06:27.909Z,81.85
2016-12-16T05:06:55.788Z,81.56
2016-12-16T05:07:23.652Z,81.37
2016-12-16T05:07:51.504Z,81.23
2016-12-16T05:08:19.605Z,81.85
2016-12-16T05:08:47.402Z,81.95
2016-12-16T05:09:15.193Z,81.46
2016-12-16T05:09:43.001Z,81.85
2016-12-16T05:10:10.827Z,81.95
2016-12-16T05:10:38.639Z,81.95
2016-12-16T05:11:06.487Z,81.27
2016-12-16T05:11:34.327Z,81.85
2016-12-16T05:12:02.132Z,81.85
2016-12-16T05:12:30.034Z,81.85
2016-12-16T05:12:57.910Z,81.95
2016-12-16T05:13:25.930Z,81.37
2016-12-16T05:13:53.731Z,80.99
2016-12-16T05:14:21.602Z,81.27
2016-12-16T05:14:49.416Z,81.56
2016-12-16T05:15:17.286Z,81.85
2016-12-16T05:15:45.127Z,81.81
2016-12-16T05:16:12.922Z,81.9
2016-12-16T05:16:40.730Z,81.37
2016-12-16T05:17:08.561Z,81.33
2016-12-16T05:17:36.393Z,82.29
2016-12-16T05:18:04.253Z,81.9
2016-12-16T05:18:32.360Z,82.48
2016-12-16T05:19:00.183Z,82.19
2016-12-16T05:19:28.046Z,83.25
2016-12-16T05:19:55.872Z,83.25
2016-12-16T05:20:23.719Z,83.15
2016-12-16T05:20:51.532Z,83.05
2016-12-16T05:21:19.317Z,82.86
2016-12-16T05:21:47.141Z,83.44
2016-12-16T05:22:14.941Z,82.96
2016-12-16T05:22:42.810Z,83.15
2016-12-16T05:23:10.881Z,83.15
2016-12-16T05:23:38.697Z,83.15
2016-12-16T05:24:06.521Z,82.86
2016-12-16T05:24:34.410Z,83.15
2016-12-16T05:25:02.257Z,83.25
2016-12-16T05:25:30.191Z,83.25
2016-12-16T05:25:58.041Z,83.15
2016-12-16T05:26:25.927Z,83.15
2016-12-16T05:26:53.833Z,82.57
2016-12-16T05:27:21.650Z,82.86
2016-12-16T05:27:49.493Z,83.05
2016-12-16T05:28:17.559Z,82.86
2016-12-16T05:28:45.436Z,83.05
2016-12-16T05:29:13.251Z,83.05
2016-12-16T05:29:41.048Z,82.57
2016-12-16T05:30:08.863Z,82.76
2016-12-16T05:30:36.726Z,82.67
2016-12-16T05:31:04.561Z,83.25
2016-12-16T05:31:32.373Z,82.48
2016-12-16T05:32:00.237Z,82.48
2016-12-16T05:32:28.021Z,83.05
2016-12-16T05:32:55.870Z,82.57
2016-12-16T05:33:23.958Z,82.76
2016-12-16T05:33:51.808Z,82.76
2016-12-16T05:34:19.669Z,83.25
2016-12-16T05:34:47.467Z,83.05
2016-12-16T05:35:15.448Z,83.25
2016-12-16T05:35:43.302Z,83.05
2016-12-16T05:36:11.151Z,83.63
2016-12-16T05:36:38.998Z,83.63
2016-12-16T05:37:06.793Z,83.34
2016-12-16T05:37:34.618Z,83.15
2016-12-16T05:38:02.418Z,83.05
2016-12-16T05:38:30.475Z,82.96
2016-12-16T05:38:58.304Z,83.25
2016-12-16T05:39:26.122Z,83.44
2016-12-16T05:39:53.981Z,83.82
2016-12-16T05:40:21.844Z,83.82
2016-12-16T05:40:49.698Z,83.72
2016-12-16T05:41:17.617Z,83.82
2016-12-16T05:41:45.400Z,84.01
2016-12-16T05:42:13.234Z,84.11
2016-12-16T05:42:41.033Z,84.39
2016-12-16T05:43:08.858Z,84.39
2016-12-16T05:43:36.896Z,84.97
2016-12-16T05:44:04.724Z,84.97
2016-12-16T05:44:32.584Z,85.06
2016-12-16T05:45:00.395Z,84.97
2016-12-16T05:45:28.225Z,84.97
2016-12-16T05:45:56.082Z,84.88
2016-12-16T05:46:23.926Z,84.78
2016-12-16T05:46:51.751Z,84.97
2016-12-16T05:47:19.546Z,84.97
2016-12-16T05:47:47.380Z,84.88
2016-12-16T05:48:15.169Z,85.25
2016-12-16T05:48:43.217Z,85.45
2016-12-16T05:49:11.041Z,85.31
2016-12-16T05:49:38.888Z,85.16
2016-12-16T05:50:06.732Z,85.35
2016-12-16T05:50:34.538Z,85.06
2016-12-16T05:51:02.408Z,85.54
2016-12-16T05:51:30.279Z,85.16
2016-12-16T05:51:58.158Z,85.25
2016-12-16T05:52:26.010Z,84.97
2016-12-16T05:52:53.887Z,85.25
2016-12-16T05:53:21.781Z,85.16
2016-12-16T05:53:49.942Z,85.25
2016-12-16T05:54:17.739Z,85.25
2016-12-16T05:54:45.631Z,85.35
2016-12-16T05:55:13.441Z,85.16
2016-12-16T05:55:41.272Z,85.35
2016-12-16T05:56:09.125Z,85.35
2016-12-16T05:56:36.939Z,85.35
2016-12-16T05:57:04.804Z,85.06
2016-12-16T05:57:32.750Z,85.54
2016-12-16T05:58:00.564Z,85.35
2016-12-16T05:58:28.654Z,85.16
2016-12-16T05:58:56.484Z,85.35
2016-12-16T05:59:24.265Z,85.35
2016-12-16T05:59:52.191Z,85.06
2016-12-16T06:00:20.007Z,84.78